sensor_id;sensor_type;location;lat;lon;timestamp;temperature;humidity
5723;DHT22;2886;49.722;8.612;2023-09-30T00:02:15;17.30;99.90
5723;DHT22;2886;49.722;8.612;2023-09-30T00:04:40;17.30;99.90
5723;DHT22;2886;49.722;8.612;2023-09-30T00:07:06;17.20;99.90
5723;DHT22;2886;49.722;8.612;2023-09-30T00:09:32;17.20;99.90
5723;DHT22;2886;49.722;8.612;2023-09-30T00:11:57;17.10;99.90
5723;DHT22;2886;49.722;8.612;2023-09-30T00:14:23;17.10;99.90
5723;DHT22;2886;49.722;8.612;2023-09-30T00:16:48;17.00;99.90
5723;DHT22;2886;49.722;8.612;2023-09-30T00:19:15;17.00;99.90
5723;DHT22;2886;49.722;8.612;2023-09-30T00:21:41;16.90;99.90
5723;DHT22;2886;49.722;8.612;2023-09-30T00:24:07;16.80;99.90
5723;DHT22;2886;49.722;8.612;2023-09-30T00:26:32;16.80;99.90
5723;DHT22;2886;49.722;8.612;2023-09-30T00:28:58;16.70;99.90
5723;DHT22;2886;49.722;8.612;2023-09-30T00:31:23;16.60;99.90
5723;DHT22;2886;49.722;8.612;2023-09-30T00:33:49;16.50;99.90
5723;DHT22;2886;49.722;8.612;2023-09-30T00:36:15;16.50;99.90
5723;DHT22;2886;49.722;8.612;2023-09-30T00:38:41;16.40;99.90
5723;DHT22;2886;49.722;8.612;2023-09-30T00:41:07;16.40;99.90
5723;DHT22;2886;49.722;8.612;2023-09-30T00:43:33;16.30;99.90
5723;DHT22;2886;49.722;8.612;2023-09-30T00:46:06;16.30;99.90
5723;DHT22;2886;49.722;8.612;2023-09-30T00:48:34;16.30;99.90
5723;DHT22;2886;49.722;8.612;2023-09-30T00:51:00;16.40;99.90
5723;DHT22;2886;49.722;8.612;2023-09-30T00:53:27;16.40;99.90
5723;DHT22;2886;49.722;8.612;2023-09-30T00:55:55;16.40;99.90
5723;DHT22;2886;49.722;8.612;2023-09-30T00:58:25;16.40;99.90
5723;DHT22;2886;49.722;8.612;2023-09-30T01:00:53;16.40;99.90
5723;DHT22;2886;49.722;8.612;2023-09-30T01:03:18;16.50;99.90
5723;DHT22;2886;49.722;8.612;2023-09-30T01:05:45;16.50;99.90
5723;DHT22;2886;49.722;8.612;2023-09-30T01:08:11;16.60;99.90
5723;DHT22;2886;49.722;8.612;2023-09-30T01:10:36;16.60;99.90
5723;DHT22;2886;49.722;8.612;2023-09-30T01:13:02;16.60;99.90
5723;DHT22;2886;49.722;8.612;2023-09-30T01:15:29;16.60;99.90
5723;DHT22;2886;49.722;8.612;2023-09-30T01:17:55;16.60;99.90
5723;DHT22;2886;49.722;8.612;2023-09-30T01:20:20;16.60;99.90
5723;DHT22;2886;49.722;8.612;2023-09-30T01:22:48;16.60;99.90
5723;DHT22;2886;49.722;8.612;2023-09-30T01:25:14;16.60;99.90
5723;DHT22;2886;49.722;8.612;2023-09-30T01:27:40;16.60;99.90
5723;DHT22;2886;49.722;8.612;2023-09-30T01:30:06;16.60;99.90
5723;DHT22;2886;49.722;8.612;2023-09-30T01:32:37;16.60;99.90
5723;DHT22;2886;49.722;8.612;2023-09-30T01:35:02;16.60;99.90
5723;DHT22;2886;49.722;8.612;2023-09-30T01:37:28;16.60;99.90
5723;DHT22;2886;49.722;8.612;2023-09-30T01:39:54;16.60;99.90
5723;DHT22;2886;49.722;8.612;2023-09-30T01:42:20;16.70;99.90
5723;DHT22;2886;49.722;8.612;2023-09-30T01:44:46;16.70;99.90
5723;DHT22;2886;49.722;8.612;2023-09-30T01:47:11;16.70;99.90
5723;DHT22;2886;49.722;8.612;2023-09-30T01:49:37;16.80;99.90
5723;DHT22;2886;49.722;8.612;2023-09-30T01:52:04;16.80;99.90
5723;DHT22;2886;49.722;8.612;2023-09-30T01:54:29;16.90;99.90
5723;DHT22;2886;49.722;8.612;2023-09-30T01:56:55;16.90;99.90
5723;DHT22;2886;49.722;8.612;2023-09-30T01:59:22;16.90;99.90
5723;DHT22;2886;49.722;8.612;2023-09-30T02:01:49;16.90;99.90
5723;DHT22;2886;49.722;8.612;2023-09-30T02:04:14;16.90;99.90
5723;DHT22;2886;49.722;8.612;2023-09-30T02:06:43;16.90;99.90
5723;DHT22;2886;49.722;8.612;2023-09-30T02:09:08;16.90;99.90
5723;DHT22;2886;49.722;8.612;2023-09-30T02:11:37;16.90;99.90
5723;DHT22;2886;49.722;8.612;2023-09-30T02:14:04;16.90;99.90
5723;DHT22;2886;49.722;8.612;2023-09-30T02:16:31;16.80;99.90
5723;DHT22;2886;49.722;8.612;2023-09-30T02:18:57;16.80;99.90
5723;DHT22;2886;49.722;8.612;2023-09-30T02:21:23;16.70;99.90
5723;DHT22;2886;49.722;8.612;2023-09-30T02:23:49;16.60;99.90
5723;DHT22;2886;49.722;8.612;2023-09-30T02:26:17;16.50;99.90
5723;DHT22;2886;49.722;8.612;2023-09-30T02:28:43;16.40;99.90
5723;DHT22;2886;49.722;8.612;2023-09-30T02:31:09;16.40;99.90
5723;DHT22;2886;49.722;8.612;2023-09-30T02:33:34;16.40;99.90
5723;DHT22;2886;49.722;8.612;2023-09-30T02:36:07;16.40;99.90
5723;DHT22;2886;49.722;8.612;2023-09-30T02:38:33;16.40;99.90
5723;DHT22;2886;49.722;8.612;2023-09-30T02:40:58;16.50;99.90
5723;DHT22;2886;49.722;8.612;2023-09-30T02:43:24;16.40;99.90
5723;DHT22;2886;49.722;8.612;2023-09-30T02:45:49;16.50;99.90
5723;DHT22;2886;49.722;8.612;2023-09-30T02:48:15;16.50;99.90
5723;DHT22;2886;49.722;8.612;2023-09-30T02:50:42;16.50;99.90
5723;DHT22;2886;49.722;8.612;2023-09-30T02:53:10;16.60;99.90
5723;DHT22;2886;49.722;8.612;2023-09-30T02:55:37;16.60;99.90
5723;DHT22;2886;49.722;8.612;2023-09-30T02:58:03;16.60;99.90
5723;DHT22;2886;49.722;8.612;2023-09-30T03:00:28;16.60;99.90
5723;DHT22;2886;49.722;8.612;2023-09-30T03:03:00;16.60;99.90
5723;DHT22;2886;49.722;8.612;2023-09-30T03:05:27;16.60;99.90
5723;DHT22;2886;49.722;8.612;2023-09-30T03:07:56;16.60;99.90
5723;DHT22;2886;49.722;8.612;2023-09-30T03:10:22;16.60;99.90
5723;DHT22;2886;49.722;8.612;2023-09-30T03:12:49;16.50;99.90
5723;DHT22;2886;49.722;8.612;2023-09-30T03:15:16;16.60;99.90
5723;DHT22;2886;49.722;8.612;2023-09-30T03:17:42;16.60;99.90
5723;DHT22;2886;49.722;8.612;2023-09-30T03:20:09;16.60;99.90
5723;DHT22;2886;49.722;8.612;2023-09-30T03:22:44;16.50;99.90
5723;DHT22;2886;49.722;8.612;2023-09-30T03:25:13;16.40;99.90
5723;DHT22;2886;49.722;8.612;2023-09-30T03:27:40;16.40;99.90
5723;DHT22;2886;49.722;8.612;2023-09-30T03:30:07;16.30;99.90
5723;DHT22;2886;49.722;8.612;2023-09-30T03:32:34;16.20;99.90
5723;DHT22;2886;49.722;8.612;2023-09-30T03:35:04;16.20;99.90
5723;DHT22;2886;49.722;8.612;2023-09-30T03:37:32;16.10;99.90
5723;DHT22;2886;49.722;8.612;2023-09-30T03:39:58;16.00;99.90
5723;DHT22;2886;49.722;8.612;2023-09-30T03:42:24;16.00;99.90
5723;DHT22;2886;49.722;8.612;2023-09-30T03:44:49;15.90;99.90
5723;DHT22;2886;49.722;8.612;2023-09-30T03:47:16;15.80;99.90
5723;DHT22;2886;49.722;8.612;2023-09-30T03:49:42;15.70;99.90
5723;DHT22;2886;49.722;8.612;2023-09-30T03:52:09;15.70;99.90
5723;DHT22;2886;49.722;8.612;2023-09-30T03:54:35;15.70;99.90
5723;DHT22;2886;49.722;8.612;2023-09-30T03:57:01;15.70;99.90
5723;DHT22;2886;49.722;8.612;2023-09-30T03:59:27;15.80;99.90
5723;DHT22;2886;49.722;8.612;2023-09-30T04:01:53;15.80;99.90
5723;DHT22;2886;49.722;8.612;2023-09-30T04:04:19;15.80;99.90
5723;DHT22;2886;49.722;8.612;2023-09-30T04:06:46;15.80;99.90
5723;DHT22;2886;49.722;8.612;2023-09-30T04:09:15;15.90;99.90
5723;DHT22;2886;49.722;8.612;2023-09-30T04:11:41;15.90;99.90
5723;DHT22;2886;49.722;8.612;2023-09-30T04:14:08;15.90;99.90
5723;DHT22;2886;49.722;8.612;2023-09-30T04:16:34;15.90;99.90
5723;DHT22;2886;49.722;8.612;2023-09-30T04:19:00;15.80;99.90
5723;DHT22;2886;49.722;8.612;2023-09-30T04:21:26;15.80;99.90
5723;DHT22;2886;49.722;8.612;2023-09-30T04:23:53;15.80;99.90
5723;DHT22;2886;49.722;8.612;2023-09-30T04:26:19;15.80;99.90
5723;DHT22;2886;49.722;8.612;2023-09-30T04:28:45;15.80;99.90
5723;DHT22;2886;49.722;8.612;2023-09-30T04:31:11;15.80;99.90
5723;DHT22;2886;49.722;8.612;2023-09-30T04:33:39;15.70;99.90
5723;DHT22;2886;49.722;8.612;2023-09-30T04:36:06;15.70;99.90
5723;DHT22;2886;49.722;8.612;2023-09-30T04:38:34;15.70;99.90
5723;DHT22;2886;49.722;8.612;2023-09-30T04:41:03;15.60;99.90
5723;DHT22;2886;49.722;8.612;2023-09-30T04:43:29;15.60;99.90
5723;DHT22;2886;49.722;8.612;2023-09-30T04:45:55;15.50;99.90
5723;DHT22;2886;49.722;8.612;2023-09-30T04:48:25;15.50;99.90
5723;DHT22;2886;49.722;8.612;2023-09-30T04:50:51;15.50;99.90
5723;DHT22;2886;49.722;8.612;2023-09-30T04:53:17;15.40;99.90
5723;DHT22;2886;49.722;8.612;2023-09-30T04:55:46;15.40;99.90
5723;DHT22;2886;49.722;8.612;2023-09-30T04:58:15;15.50;99.90
5723;DHT22;2886;49.722;8.612;2023-09-30T05:00:41;15.50;99.90
5723;DHT22;2886;49.722;8.612;2023-09-30T05:03:07;15.50;99.90
5723;DHT22;2886;49.722;8.612;2023-09-30T05:05:33;15.50;99.90
5723;DHT22;2886;49.722;8.612;2023-09-30T05:07:59;15.50;99.90
5723;DHT22;2886;49.722;8.612;2023-09-30T05:10:25;15.60;99.90
5723;DHT22;2886;49.722;8.612;2023-09-30T05:12:51;15.60;99.90
5723;DHT22;2886;49.722;8.612;2023-09-30T05:15:20;15.60;99.90
5723;DHT22;2886;49.722;8.612;2023-09-30T05:17:46;15.60;99.90
5723;DHT22;2886;49.722;8.612;2023-09-30T05:20:13;15.50;99.90
5723;DHT22;2886;49.722;8.612;2023-09-30T05:22:39;15.50;99.90
5723;DHT22;2886;49.722;8.612;2023-09-30T05:25:07;15.50;99.90
5723;DHT22;2886;49.722;8.612;2023-09-30T05:27:33;15.50;99.90
5723;DHT22;2886;49.722;8.612;2023-09-30T05:29:58;15.50;99.90
5723;DHT22;2886;49.722;8.612;2023-09-30T05:32:25;15.50;99.90
5723;DHT22;2886;49.722;8.612;2023-09-30T05:34:52;15.50;99.90
5723;DHT22;2886;49.722;8.612;2023-09-30T05:37:20;15.40;99.90
5723;DHT22;2886;49.722;8.612;2023-09-30T05:39:47;15.40;99.90
5723;DHT22;2886;49.722;8.612;2023-09-30T05:42:15;15.30;99.90
5723;DHT22;2886;49.722;8.612;2023-09-30T05:44:41;15.30;99.90
5723;DHT22;2886;49.722;8.612;2023-09-30T05:47:08;15.30;99.90
5723;DHT22;2886;49.722;8.612;2023-09-30T05:49:34;15.20;99.90
5723;DHT22;2886;49.722;8.612;2023-09-30T05:51:59;15.20;99.90
5723;DHT22;2886;49.722;8.612;2023-09-30T05:54:26;15.20;99.90
5723;DHT22;2886;49.722;8.612;2023-09-30T05:56:51;15.30;99.90
5723;DHT22;2886;49.722;8.612;2023-09-30T05:59:17;15.30;99.90
5723;DHT22;2886;49.722;8.612;2023-09-30T06:01:42;15.30;99.90
5723;DHT22;2886;49.722;8.612;2023-09-30T06:04:08;15.40;99.90
5723;DHT22;2886;49.722;8.612;2023-09-30T06:06:34;15.50;99.90
5723;DHT22;2886;49.722;8.612;2023-09-30T06:09:00;15.70;99.90
5723;DHT22;2886;49.722;8.612;2023-09-30T06:11:26;15.70;99.90
5723;DHT22;2886;49.722;8.612;2023-09-30T06:13:57;15.80;99.90
5723;DHT22;2886;49.722;8.612;2023-09-30T06:16:24;15.80;99.90
5723;DHT22;2886;49.722;8.612;2023-09-30T06:18:52;15.80;99.90
5723;DHT22;2886;49.722;8.612;2023-09-30T06:21:17;15.80;99.90
5723;DHT22;2886;49.722;8.612;2023-09-30T06:23:49;15.80;99.90
5723;DHT22;2886;49.722;8.612;2023-09-30T06:26:17;15.80;99.90
5723;DHT22;2886;49.722;8.612;2023-09-30T06:28:44;15.80;99.90
5723;DHT22;2886;49.722;8.612;2023-09-30T06:31:10;15.80;99.90
5723;DHT22;2886;49.722;8.612;2023-09-30T06:33:39;15.70;99.90
5723;DHT22;2886;49.722;8.612;2023-09-30T06:36:12;15.70;99.90
5723;DHT22;2886;49.722;8.612;2023-09-30T06:38:41;15.70;99.90
5723;DHT22;2886;49.722;8.612;2023-09-30T06:41:15;15.60;99.90
5723;DHT22;2886;49.722;8.612;2023-09-30T06:43:41;15.60;99.90
5723;DHT22;2886;49.722;8.612;2023-09-30T06:46:07;15.70;99.90
5723;DHT22;2886;49.722;8.612;2023-09-30T06:48:36;15.80;99.90
5723;DHT22;2886;49.722;8.612;2023-09-30T06:51:03;15.90;99.90
5723;DHT22;2886;49.722;8.612;2023-09-30T06:53:28;15.90;99.90
5723;DHT22;2886;49.722;8.612;2023-09-30T06:55:54;16.00;99.90
5723;DHT22;2886;49.722;8.612;2023-09-30T06:58:20;16.10;99.90
5723;DHT22;2886;49.722;8.612;2023-09-30T07:00:47;16.20;99.90
5723;DHT22;2886;49.722;8.612;2023-09-30T07:03:14;16.30;99.90
5723;DHT22;2886;49.722;8.612;2023-09-30T07:05:41;16.50;99.90
5723;DHT22;2886;49.722;8.612;2023-09-30T07:08:06;16.60;99.90
5723;DHT22;2886;49.722;8.612;2023-09-30T07:10:32;16.70;99.90
5723;DHT22;2886;49.722;8.612;2023-09-30T07:12:58;16.70;99.90
5723;DHT22;2886;49.722;8.612;2023-09-30T07:15:24;16.70;99.90
5723;DHT22;2886;49.722;8.612;2023-09-30T07:17:49;16.70;99.90
5723;DHT22;2886;49.722;8.612;2023-09-30T07:20:15;16.70;99.90
5723;DHT22;2886;49.722;8.612;2023-09-30T07:22:41;16.60;99.90
5723;DHT22;2886;49.722;8.612;2023-09-30T07:25:07;16.60;99.90
5723;DHT22;2886;49.722;8.612;2023-09-30T07:27:34;16.70;99.90
5723;DHT22;2886;49.722;8.612;2023-09-30T07:30:00;16.70;99.90
5723;DHT22;2886;49.722;8.612;2023-09-30T07:32:25;16.60;99.90
5723;DHT22;2886;49.722;8.612;2023-09-30T07:34:51;16.60;99.90
5723;DHT22;2886;49.722;8.612;2023-09-30T07:37:17;16.70;99.90
5723;DHT22;2886;49.722;8.612;2023-09-30T07:39:44;16.70;99.90
5723;DHT22;2886;49.722;8.612;2023-09-30T07:42:10;16.90;99.90
5723;DHT22;2886;49.722;8.612;2023-09-30T07:44:35;17.20;99.90
5723;DHT22;2886;49.722;8.612;2023-09-30T07:47:04;17.40;99.80
5723;DHT22;2886;49.722;8.612;2023-09-30T07:49:32;17.50;97.10
5723;DHT22;2886;49.722;8.612;2023-09-30T07:51:58;17.50;97.20
5723;DHT22;2886;49.722;8.612;2023-09-30T07:54:23;17.50;95.70
5723;DHT22;2886;49.722;8.612;2023-09-30T07:56:49;17.70;94.90
5723;DHT22;2886;49.722;8.612;2023-09-30T07:59:15;17.80;95.60
5723;DHT22;2886;49.722;8.612;2023-09-30T08:01:41;17.90;95.20
5723;DHT22;2886;49.722;8.612;2023-09-30T08:04:07;18.10;94.60
5723;DHT22;2886;49.722;8.612;2023-09-30T08:06:32;18.10;94.10
5723;DHT22;2886;49.722;8.612;2023-09-30T08:08:58;18.20;93.50
5723;DHT22;2886;49.722;8.612;2023-09-30T08:11:24;18.00;93.70
5723;DHT22;2886;49.722;8.612;2023-09-30T08:13:53;18.00;94.20
5723;DHT22;2886;49.722;8.612;2023-09-30T08:16:19;18.20;93.70
5723;DHT22;2886;49.722;8.612;2023-09-30T08:18:46;18.30;93.00
5723;DHT22;2886;49.722;8.612;2023-09-30T08:21:11;18.30;93.50
5723;DHT22;2886;49.722;8.612;2023-09-30T08:23:37;18.60;93.50
5723;DHT22;2886;49.722;8.612;2023-09-30T08:26:05;18.80;92.30
5723;DHT22;2886;49.722;8.612;2023-09-30T08:28:31;18.80;92.50
5723;DHT22;2886;49.722;8.612;2023-09-30T08:31:05;18.80;91.80
5723;DHT22;2886;49.722;8.612;2023-09-30T08:33:31;18.70;91.80
5723;DHT22;2886;49.722;8.612;2023-09-30T08:36:03;18.70;92.30
5723;DHT22;2886;49.722;8.612;2023-09-30T08:38:35;18.90;92.00
5723;DHT22;2886;49.722;8.612;2023-09-30T08:41:01;19.00;91.90
5723;DHT22;2886;49.722;8.612;2023-09-30T08:43:28;19.30;91.60
5723;DHT22;2886;49.722;8.612;2023-09-30T08:45:56;19.60;90.30
5723;DHT22;2886;49.722;8.612;2023-09-30T08:48:23;19.50;90.40
5723;DHT22;2886;49.722;8.612;2023-09-30T08:50:49;19.20;91.00
5723;DHT22;2886;49.722;8.612;2023-09-30T08:53:16;19.10;91.40
5723;DHT22;2886;49.722;8.612;2023-09-30T08:55:44;19.20;91.00
5723;DHT22;2886;49.722;8.612;2023-09-30T08:58:12;19.50;89.10
5723;DHT22;2886;49.722;8.612;2023-09-30T09:00:38;19.80;87.70
5723;DHT22;2886;49.722;8.612;2023-09-30T09:03:06;19.80;84.70
5723;DHT22;2886;49.722;8.612;2023-09-30T09:05:32;19.70;83.40
5723;DHT22;2886;49.722;8.612;2023-09-30T09:07:58;19.50;83.70
5723;DHT22;2886;49.722;8.612;2023-09-30T09:10:23;19.40;84.20
5723;DHT22;2886;49.722;8.612;2023-09-30T09:12:57;19.50;85.30
5723;DHT22;2886;49.722;8.612;2023-09-30T09:15:27;19.80;84.00
5723;DHT22;2886;49.722;8.612;2023-09-30T09:17:54;20.00;82.50
5723;DHT22;2886;49.722;8.612;2023-09-30T09:20:21;20.20;82.60
5723;DHT22;2886;49.722;8.612;2023-09-30T09:22:49;20.00;81.70
5723;DHT22;2886;49.722;8.612;2023-09-30T09:25:19;20.00;80.40
5723;DHT22;2886;49.722;8.612;2023-09-30T09:27:49;20.20;78.40
5723;DHT22;2886;49.722;8.612;2023-09-30T09:30:25;20.20;75.90
5723;DHT22;2886;49.722;8.612;2023-09-30T09:35:23;20.30;67.70
5723;DHT22;2886;49.722;8.612;2023-09-30T09:40:24;20.30;76.30
5723;DHT22;2886;49.722;8.612;2023-09-30T09:42:51;20.50;75.40
5723;DHT22;2886;49.722;8.612;2023-09-30T09:45:24;20.60;75.10
5723;DHT22;2886;49.722;8.612;2023-09-30T09:47:51;20.70;73.00
5723;DHT22;2886;49.722;8.612;2023-09-30T09:50:20;21.00;70.00
5723;DHT22;2886;49.722;8.612;2023-09-30T09:52:48;21.10;70.10
5723;DHT22;2886;49.722;8.612;2023-09-30T09:55:16;20.80;74.00
5723;DHT22;2886;49.722;8.612;2023-09-30T09:57:43;20.60;74.50
5723;DHT22;2886;49.722;8.612;2023-09-30T10:00:17;20.30;75.30
5723;DHT22;2886;49.722;8.612;2023-09-30T10:02:45;20.40;74.40
5723;DHT22;2886;49.722;8.612;2023-09-30T10:05:12;20.80;70.50
5723;DHT22;2886;49.722;8.612;2023-09-30T10:10:17;20.30;68.20
5723;DHT22;2886;49.722;8.612;2023-09-30T10:12:43;20.20;66.50
5723;DHT22;2886;49.722;8.612;2023-09-30T10:18:07;20.30;67.20
5723;DHT22;2886;49.722;8.612;2023-09-30T10:20:34;20.60;65.30
5723;DHT22;2886;49.722;8.612;2023-09-30T10:23:25;21.10;61.70
5723;DHT22;2886;49.722;8.612;2023-09-30T10:28:40;20.90;60.60
5723;DHT22;2886;49.722;8.612;2023-09-30T10:31:13;20.90;63.40
5723;DHT22;2886;49.722;8.612;2023-09-30T10:36:37;20.90;61.90
5723;DHT22;2886;49.722;8.612;2023-09-30T10:39:04;20.70;67.60
5723;DHT22;2886;49.722;8.612;2023-09-30T10:49:49;20.70;65.20
5723;DHT22;2886;49.722;8.612;2023-09-30T10:52:22;20.60;65.00
5723;DHT22;2886;49.722;8.612;2023-09-30T10:54:49;20.70;63.90
5723;DHT22;2886;49.722;8.612;2023-09-30T10:57:29;20.40;62.80
5723;DHT22;2886;49.722;8.612;2023-09-30T11:00:11;20.50;61.30
5723;DHT22;2886;49.722;8.612;2023-09-30T11:02:48;20.40;61.80
5723;DHT22;2886;49.722;8.612;2023-09-30T11:05:14;20.50;61.30
5723;DHT22;2886;49.722;8.612;2023-09-30T11:07:41;20.70;59.70
5723;DHT22;2886;49.722;8.612;2023-09-30T11:10:09;20.70;59.40
5723;DHT22;2886;49.722;8.612;2023-09-30T11:12:34;20.70;59.30
5723;DHT22;2886;49.722;8.612;2023-09-30T11:15:02;20.70;57.40
5723;DHT22;2886;49.722;8.612;2023-09-30T11:17:28;20.70;60.10
5723;DHT22;2886;49.722;8.612;2023-09-30T11:19:54;20.30;58.50
5723;DHT22;2886;49.722;8.612;2023-09-30T11:22:20;20.40;59.30
5723;DHT22;2886;49.722;8.612;2023-09-30T11:24:46;20.40;58.30
5723;DHT22;2886;49.722;8.612;2023-09-30T11:27:12;20.40;59.20
5723;DHT22;2886;49.722;8.612;2023-09-30T11:29:48;20.40;60.70
5723;DHT22;2886;49.722;8.612;2023-09-30T11:32:23;20.50;59.20
5723;DHT22;2886;49.722;8.612;2023-09-30T11:34:52;20.70;58.30
5723;DHT22;2886;49.722;8.612;2023-09-30T11:37:18;20.60;55.50
5723;DHT22;2886;49.722;8.612;2023-09-30T11:39:44;20.30;57.20
5723;DHT22;2886;49.722;8.612;2023-09-30T11:42:17;20.20;59.00
5723;DHT22;2886;49.722;8.612;2023-09-30T11:44:46;20.30;58.40
5723;DHT22;2886;49.722;8.612;2023-09-30T11:47:13;20.50;58.80
5723;DHT22;2886;49.722;8.612;2023-09-30T11:49:41;20.70;57.50
5723;DHT22;2886;49.722;8.612;2023-09-30T11:52:11;20.90;55.20
5723;DHT22;2886;49.722;8.612;2023-09-30T11:54:39;20.80;55.80
5723;DHT22;2886;49.722;8.612;2023-09-30T11:57:16;20.80;55.00
5723;DHT22;2886;49.722;8.612;2023-09-30T11:59:43;20.50;57.20
5723;DHT22;2886;49.722;8.612;2023-09-30T12:02:09;20.40;56.90
5723;DHT22;2886;49.722;8.612;2023-09-30T12:04:38;20.30;57.40
5723;DHT22;2886;49.722;8.612;2023-09-30T12:07:04;20.30;57.10
5723;DHT22;2886;49.722;8.612;2023-09-30T12:09:32;20.50;58.00
5723;DHT22;2886;49.722;8.612;2023-09-30T12:11:58;20.60;55.70
5723;DHT22;2886;49.722;8.612;2023-09-30T12:14:24;20.50;57.40
5723;DHT22;2886;49.722;8.612;2023-09-30T12:16:50;20.30;57.70
5723;DHT22;2886;49.722;8.612;2023-09-30T12:19:19;20.30;58.30
5723;DHT22;2886;49.722;8.612;2023-09-30T12:21:46;20.40;58.00
5723;DHT22;2886;49.722;8.612;2023-09-30T12:24:17;20.50;58.30
5723;DHT22;2886;49.722;8.612;2023-09-30T12:26:48;20.40;58.50
5723;DHT22;2886;49.722;8.612;2023-09-30T12:29:15;20.50;58.20
5723;DHT22;2886;49.722;8.612;2023-09-30T12:31:44;20.50;58.00
5723;DHT22;2886;49.722;8.612;2023-09-30T12:34:10;20.40;59.00
5723;DHT22;2886;49.722;8.612;2023-09-30T12:36:36;20.40;58.40
5723;DHT22;2886;49.722;8.612;2023-09-30T12:39:02;20.40;60.20
5723;DHT22;2886;49.722;8.612;2023-09-30T12:41:42;20.40;57.40
5723;DHT22;2886;49.722;8.612;2023-09-30T12:44:08;20.20;57.10
5723;DHT22;2886;49.722;8.612;2023-09-30T12:46:34;20.20;58.70
5723;DHT22;2886;49.722;8.612;2023-09-30T12:49:08;20.30;57.40
5723;DHT22;2886;49.722;8.612;2023-09-30T12:51:35;20.40;57.30
5723;DHT22;2886;49.722;8.612;2023-09-30T12:54:01;20.40;57.30
5723;DHT22;2886;49.722;8.612;2023-09-30T12:56:27;20.60;56.70
5723;DHT22;2886;49.722;8.612;2023-09-30T12:58:55;20.50;57.40
5723;DHT22;2886;49.722;8.612;2023-09-30T13:01:20;20.50;57.30
5723;DHT22;2886;49.722;8.612;2023-09-30T13:03:48;20.60;58.60
5723;DHT22;2886;49.722;8.612;2023-09-30T13:06:14;20.70;56.80
5723;DHT22;2886;49.722;8.612;2023-09-30T13:08:41;20.60;56.50
5723;DHT22;2886;49.722;8.612;2023-09-30T13:11:07;20.40;59.20
5723;DHT22;2886;49.722;8.612;2023-09-30T13:13:33;20.40;59.00
5723;DHT22;2886;49.722;8.612;2023-09-30T13:16:00;20.40;57.80
5723;DHT22;2886;49.722;8.612;2023-09-30T13:18:26;20.50;59.50
5723;DHT22;2886;49.722;8.612;2023-09-30T13:20:51;20.50;58.90
5723;DHT22;2886;49.722;8.612;2023-09-30T13:23:18;20.60;56.60
5723;DHT22;2886;49.722;8.612;2023-09-30T13:25:44;20.50;55.10
5723;DHT22;2886;49.722;8.612;2023-09-30T13:28:10;20.40;55.10
5723;DHT22;2886;49.722;8.612;2023-09-30T13:30:36;20.30;54.40
5723;DHT22;2886;49.722;8.612;2023-09-30T13:33:02;20.30;56.60
5723;DHT22;2886;49.722;8.612;2023-09-30T13:35:28;20.30;57.50
5723;DHT22;2886;49.722;8.612;2023-09-30T13:37:53;20.30;57.60
5723;DHT22;2886;49.722;8.612;2023-09-30T13:40:19;20.40;57.10
5723;DHT22;2886;49.722;8.612;2023-09-30T13:42:45;20.40;56.60
5723;DHT22;2886;49.722;8.612;2023-09-30T13:45:11;20.30;55.90
5723;DHT22;2886;49.722;8.612;2023-09-30T13:47:37;20.20;56.60
5723;DHT22;2886;49.722;8.612;2023-09-30T13:50:03;20.30;57.30
5723;DHT22;2886;49.722;8.612;2023-09-30T13:52:34;20.40;55.50
5723;DHT22;2886;49.722;8.612;2023-09-30T13:55:00;20.50;54.10
5723;DHT22;2886;49.722;8.612;2023-09-30T13:57:26;20.50;54.70
5723;DHT22;2886;49.722;8.612;2023-09-30T13:59:51;20.40;55.20
5723;DHT22;2886;49.722;8.612;2023-09-30T14:02:17;20.30;56.30
5723;DHT22;2886;49.722;8.612;2023-09-30T14:04:43;20.30;56.70
5723;DHT22;2886;49.722;8.612;2023-09-30T14:07:09;20.40;56.20
5723;DHT22;2886;49.722;8.612;2023-09-30T14:09:35;20.50;55.20
5723;DHT22;2886;49.722;8.612;2023-09-30T14:12:01;20.50;54.70
5723;DHT22;2886;49.722;8.612;2023-09-30T14:14:27;20.50;55.30
5723;DHT22;2886;49.722;8.612;2023-09-30T14:16:52;20.50;55.50
5723;DHT22;2886;49.722;8.612;2023-09-30T14:19:18;20.40;54.50
5723;DHT22;2886;49.722;8.612;2023-09-30T14:21:43;20.40;53.50
5723;DHT22;2886;49.722;8.612;2023-09-30T14:24:11;20.40;54.50
5723;DHT22;2886;49.722;8.612;2023-09-30T14:26:36;20.30;54.80
5723;DHT22;2886;49.722;8.612;2023-09-30T14:29:03;20.30;55.10
5723;DHT22;2886;49.722;8.612;2023-09-30T14:31:29;20.30;54.60
5723;DHT22;2886;49.722;8.612;2023-09-30T14:33:55;20.30;54.70
5723;DHT22;2886;49.722;8.612;2023-09-30T14:36:20;20.40;56.20
5723;DHT22;2886;49.722;8.612;2023-09-30T14:38:46;20.40;54.30
5723;DHT22;2886;49.722;8.612;2023-09-30T14:41:12;20.30;54.50
5723;DHT22;2886;49.722;8.612;2023-09-30T14:43:40;20.20;54.70
5723;DHT22;2886;49.722;8.612;2023-09-30T14:46:06;20.20;55.50
5723;DHT22;2886;49.722;8.612;2023-09-30T14:48:34;20.20;54.90
5723;DHT22;2886;49.722;8.612;2023-09-30T14:50:59;20.20;54.10
5723;DHT22;2886;49.722;8.612;2023-09-30T14:53:25;20.20;54.50
5723;DHT22;2886;49.722;8.612;2023-09-30T14:55:51;20.20;55.20
5723;DHT22;2886;49.722;8.612;2023-09-30T14:58:17;20.10;55.10
5723;DHT22;2886;49.722;8.612;2023-09-30T15:00:42;20.10;55.40
5723;DHT22;2886;49.722;8.612;2023-09-30T15:03:08;20.10;55.90
5723;DHT22;2886;49.722;8.612;2023-09-30T15:05:34;20.10;55.50
5723;DHT22;2886;49.722;8.612;2023-09-30T15:08:00;20.00;57.10
5723;DHT22;2886;49.722;8.612;2023-09-30T15:10:28;20.00;56.40
5723;DHT22;2886;49.722;8.612;2023-09-30T15:12:54;20.00;56.30
5723;DHT22;2886;49.722;8.612;2023-09-30T15:15:20;20.00;58.10
5723;DHT22;2886;49.722;8.612;2023-09-30T15:17:45;20.00;57.00
5723;DHT22;2886;49.722;8.612;2023-09-30T15:20:11;20.00;57.00
5723;DHT22;2886;49.722;8.612;2023-09-30T15:22:37;20.00;56.90
5723;DHT22;2886;49.722;8.612;2023-09-30T15:25:03;20.00;57.70
5723;DHT22;2886;49.722;8.612;2023-09-30T15:27:29;20.00;58.70
5723;DHT22;2886;49.722;8.612;2023-09-30T15:29:55;20.10;58.50
5723;DHT22;2886;49.722;8.612;2023-09-30T15:32:21;20.00;59.60
5723;DHT22;2886;49.722;8.612;2023-09-30T15:34:47;20.10;57.90
5723;DHT22;2886;49.722;8.612;2023-09-30T15:37:13;20.00;60.40
5723;DHT22;2886;49.722;8.612;2023-09-30T15:39:40;20.00;61.90
5723;DHT22;2886;49.722;8.612;2023-09-30T15:42:07;20.10;60.20
5723;DHT22;2886;49.722;8.612;2023-09-30T15:44:34;20.10;59.50
5723;DHT22;2886;49.722;8.612;2023-09-30T15:47:00;20.10;60.20
5723;DHT22;2886;49.722;8.612;2023-09-30T15:49:26;20.10;61.10
5723;DHT22;2886;49.722;8.612;2023-09-30T15:51:52;20.10;60.70
5723;DHT22;2886;49.722;8.612;2023-09-30T15:54:18;20.10;62.40
5723;DHT22;2886;49.722;8.612;2023-09-30T15:56:44;20.00;63.10
5723;DHT22;2886;49.722;8.612;2023-09-30T15:59:10;20.10;61.80
5723;DHT22;2886;49.722;8.612;2023-09-30T16:01:36;20.00;62.70
5723;DHT22;2886;49.722;8.612;2023-09-30T16:04:01;19.90;63.20
5723;DHT22;2886;49.722;8.612;2023-09-30T16:06:27;19.90;63.80
5723;DHT22;2886;49.722;8.612;2023-09-30T16:08:53;19.80;65.50
5723;DHT22;2886;49.722;8.612;2023-09-30T16:11:25;19.70;66.60
5723;DHT22;2886;49.722;8.612;2023-09-30T16:13:51;19.70;67.30
5723;DHT22;2886;49.722;8.612;2023-09-30T16:16:17;19.70;67.70
5723;DHT22;2886;49.722;8.612;2023-09-30T16:18:43;19.60;66.40
5723;DHT22;2886;49.722;8.612;2023-09-30T16:21:09;19.60;65.80
5723;DHT22;2886;49.722;8.612;2023-09-30T16:23:35;19.50;67.50
5723;DHT22;2886;49.722;8.612;2023-09-30T16:26:01;19.40;66.30